createdAt,value
2019-02-17T00:00:38.691Z,62.70
2019-02-17T00:03:11.210Z,62.80
2019-02-17T00:05:44.931Z,62.90
2019-02-17T00:08:17.171Z,63.30
2019-02-17T00:10:49.951Z,63.50
2019-02-17T00:13:23.190Z,63.40
2019-02-17T00:15:55.891Z,63.60
2019-02-17T00:18:28.830Z,63.50
2019-02-17T00:21:01.734Z,63.00
2019-02-17T00:23:35.010Z,63.10
2019-02-17T00:26:07.591Z,63.30
2019-02-17T00:28:41.111Z,64.20
2019-02-17T00:31:14.230Z,63.70
2019-02-17T00:33:46.270Z,63.30
2019-02-17T00:36:19.390Z,63.90
2019-02-17T00:38:52.353Z,62.90
2019-02-17T00:41:25.278Z,63.20
2019-02-17T00:43:58.590Z,63.50
2019-02-17T00:46:30.551Z,63.60
2019-02-17T00:49:03.371Z,63.90
2019-02-17T00:51:36.031Z,63.70
2019-02-17T00:54:07.750Z,62.90
2019-02-17T00:56:40.509Z,63.20
2019-02-17T00:59:13.792Z,63.50
2019-02-17T01:01:47.395Z,63.80
2019-02-17T01:04:19.815Z,64.00
2019-02-17T01:06:53.175Z,64.20
2019-02-17T01:09:26.114Z,63.70
2019-02-17T01:11:59.337Z,63.80
2019-02-17T01:14:31.594Z,63.90
2019-02-17T01:17:04.615Z,64.40
2019-02-17T01:19:36.754Z,64.60
2019-02-17T01:22:10.978Z,64.70
2019-02-17T01:24:43.416Z,64.90
2019-02-17T01:27:15.474Z,64.80
2019-02-17T01:29:47.925Z,65.00
2019-02-17T01:32:21.153Z,65.40
2019-02-17T01:34:54.273Z,65.50
2019-02-17T01:37:26.774Z,65.30
2019-02-17T01:39:59.494Z,65.50
2019-02-17T01:42:32.512Z,65.80
2019-02-17T01:45:05.313Z,66.00
2019-02-17T01:47:37.456Z,65.90
2019-02-17T01:50:09.653Z,65.80
2019-02-17T01:52:42.074Z,65.90
2019-02-17T01:55:14.852Z,66.00
2019-02-17T01:57:48.452Z,66.10
2019-02-17T02:00:21.855Z,66.20
2019-02-17T02:02:54.594Z,65.70
2019-02-17T02:05:27.953Z,65.40
2019-02-17T02:08:01.594Z,65.60
2019-02-17T02:10:33.852Z,65.60
2019-02-17T02:13:06.651Z,65.90
2019-02-17T02:15:40.131Z,65.80
2019-02-17T02:18:12.671Z,65.20
2019-02-17T02:20:45.012Z,65.20
2019-02-17T02:23:18.012Z,65.00
2019-02-17T02:25:50.971Z,64.60
2019-02-17T02:28:23.992Z,64.60
2019-02-17T02:30:56.271Z,64.90
2019-02-17T02:33:28.971Z,65.00
2019-02-17T02:36:01.690Z,65.40
2019-02-17T02:38:34.834Z,65.90
2019-02-17T02:41:07.911Z,66.00
2019-02-17T02:43:40.410Z,66.20
2019-02-17T02:46:13.102Z,66.40
2019-02-17T02:48:46.430Z,66.40
2019-02-17T02:51:19.691Z,67.00
2019-02-17T02:53:53.369Z,67.00
2019-02-17T02:56:25.892Z,66.90
2019-02-17T02:58:58.296Z,67.00
2019-02-17T03:01:31.270Z,67.00
2019-02-17T03:04:04.974Z,66.90
2019-02-17T03:06:53.629Z,66.90
2019-02-17T03:09:25.589Z,66.80
2019-02-17T03:11:57.852Z,66.90
2019-02-17T03:14:31.129Z,67.10
2019-02-17T03:17:03.286Z,67.00
2019-02-17T03:19:35.671Z,67.00
2019-02-17T03:22:08.611Z,67.10
2019-02-17T03:24:41.189Z,67.10
2019-02-17T03:27:13.559Z,66.90
2019-02-17T03:29:46.749Z,66.90
2019-02-17T03:32:19.509Z,66.80
2019-02-17T03:34:52.770Z,66.80
2019-02-17T03:37:25.010Z,66.80
2019-02-17T03:39:57.769Z,66.10
2019-02-17T03:42:30.290Z,66.20
2019-02-17T03:45:03.890Z,66.70
2019-02-17T03:47:36.929Z,65.80
2019-02-17T03:50:09.830Z,65.30
2019-02-17T03:52:42.110Z,65.60
2019-02-17T03:55:15.511Z,65.70
2019-02-17T03:57:48.770Z,65.10
2019-02-17T04:00:21.630Z,63.80
2019-02-17T04:02:54.050Z,64.20
2019-02-17T04:05:26.690Z,64.50
2019-02-17T04:07:59.619Z,64.60
2019-02-17T04:10:32.051Z,64.30
2019-02-17T04:13:04.189Z,64.20
2019-02-17T04:15:37.120Z,64.20
2019-02-17T04:18:09.908Z,64.00
2019-02-17T04:20:41.929Z,64.20
2019-02-17T04:23:14.312Z,64.00
2019-02-17T04:25:47.398Z,63.50
2019-02-17T04:28:20.469Z,63.10
2019-02-17T04:30:52.749Z,62.70
2019-02-17T04:33:25.728Z,62.80
2019-02-17T04:35:57.950Z,62.20
2019-02-17T04:38:30.875Z,61.80
2019-02-17T04:41:03.230Z,62.10
2019-02-17T04:43:36.808Z,61.70
2019-02-17T04:46:09.524Z,61.50
2019-02-17T04:48:41.571Z,61.40
2019-02-17T04:51:14.470Z,61.70
2019-02-17T04:53:46.869Z,61.80
2019-02-17T04:56:19.533Z,61.70
2019-02-17T04:58:52.928Z,61.80
2019-02-17T05:01:25.231Z,62.10
2019-02-17T05:03:58.191Z,62.50
2019-02-17T05:06:30.872Z,61.90
2019-02-17T05:09:05.270Z,62.30
2019-02-17T05:11:38.097Z,63.00
2019-02-17T05:14:10.448Z,63.20
2019-02-17T05:16:42.773Z,63.90
2019-02-17T05:19:16.149Z,65.70
2019-02-17T05:21:49.198Z,66.70
2019-02-17T05:24:22.049Z,66.50
2019-02-17T05:26:54.351Z,66.30
2019-02-17T05:29:27.850Z,66.50
2019-02-17T05:32:00.529Z,65.90
2019-02-17T05:34:32.950Z,65.70
2019-02-17T05:37:06.489Z,66.00
2019-02-17T05:39:39.609Z,65.90
2019-02-17T05:42:12.614Z,66.10
2019-02-17T05:44:45.478Z,66.20
2019-02-17T05:47:18.011Z,66.50
2019-02-17T05:49:51.510Z,66.50
2019-02-17T05:52:24.822Z,66.60
2019-02-17T05:54:57.250Z,66.70
2019-02-17T05:57:30.429Z,66.80
2019-02-17T06:00:02.683Z,66.00
2019-02-17T06:02:35.652Z,65.10
2019-02-17T06:05:09.171Z,63.90
2019-02-17T06:07:42.293Z,63.90
2019-02-17T06:10:15.571Z,62.30
2019-02-17T06:12:47.571Z,62.00
2019-02-17T06:15:20.690Z,61.90
2019-02-17T06:17:53.110Z,62.20
2019-02-17T06:20:26.089Z,62.10
2019-02-17T06:22:58.869Z,61.90
2019-02-17T06:25:31.853Z,61.40
2019-02-17T06:28:04.970Z,60.90
2019-02-17T06:30:37.933Z,60.50
2019-02-17T06:33:10.872Z,60.60
2019-02-17T06:35:43.217Z,60.50
2019-02-17T06:38:15.871Z,60.30
2019-02-17T06:40:48.331Z,59.90
2019-02-17T06:43:21.151Z,60.20
2019-02-17T06:45:53.430Z,60.60
2019-02-17T06:48:26.153Z,60.40
2019-02-17T06:50:59.391Z,60.90
2019-02-17T06:53:31.990Z,61.10
2019-02-17T06:56:15.550Z,60.80
2019-02-17T06:58:48.371Z,60.50
2019-02-17T07:01:24.696Z,60.70
2019-02-17T07:03:55.270Z,61.10
2019-02-17T07:06:30.198Z,61.30
2019-02-17T07:09:04.795Z,62.30
2019-02-17T07:11:38.092Z,63.20
2019-02-17T07:14:10.712Z,63.10
2019-02-17T07:16:44.131Z,62.90
2019-02-17T07:19:16.573Z,62.90
2019-02-17T07:21:49.512Z,63.10
2019-02-17T07:24:23.030Z,63.50
2019-02-17T07:26:56.030Z,63.80
2019-02-17T07:29:29.652Z,64.10
2019-02-17T07:32:01.770Z,64.30
2019-02-17T07:34:34.415Z,64.50
2019-02-17T07:37:07.069Z,64.90
2019-02-17T07:39:40.152Z,65.20
2019-02-17T07:42:13.279Z,65.50
2019-02-17T07:44:45.801Z,65.40
2019-02-17T07:47:18.941Z,65.20
2019-02-17T07:49:52.406Z,65.00
2019-02-17T07:52:25.019Z,65.00
2019-02-17T07:54:57.400Z,64.90
2019-02-17T07:57:30.020Z,64.50
2019-02-17T08:00:02.043Z,64.10
2019-02-17T08:02:34.120Z,64.80
2019-02-17T08:05:07.340Z,65.00
2019-02-17T08:07:40.418Z,65.30
2019-02-17T08:10:13.641Z,65.50
2019-02-17T08:12:45.819Z,65.00
2019-02-17T08:15:18.600Z,64.80
2019-02-17T08:17:51.979Z,64.30
2019-02-17T08:20:24.680Z,63.60
2019-02-17T08:22:57.547Z,62.90
2019-02-17T08:25:29.579Z,63.00
2019-02-17T08:28:03.280Z,63.20
2019-02-17T08:30:36.639Z,62.70
2019-02-17T08:33:09.639Z,59.10
2019-02-17T08:35:43.021Z,58.80
2019-02-17T08:38:15.560Z,59.00
2019-02-17T08:40:48.381Z,58.90
2019-02-17T08:43:21.340Z,58.90
2019-02-17T08:45:54.120Z,59.20
2019-02-17T08:48:26.639Z,59.40
2019-02-17T08:50:58.940Z,60.40
2019-02-17T08:53:32.140Z,60.50
2019-02-17T08:56:04.920Z,60.30
2019-02-17T08:58:37.960Z,60.10
2019-02-17T09:01:10.402Z,61.10
2019-02-17T09:03:43.039Z,61.20
2019-02-17T09:06:16.540Z,60.60
2019-02-17T09:08:49.583Z,59.70
2019-02-17T09:11:22.140Z,59.60
2019-02-17T09:13:54.280Z,59.80
2019-02-17T09:16:26.959Z,60.20
2019-02-17T09:19:00.338Z,60.00
2019-02-17T09:21:32.460Z,59.30
2019-02-17T09:24:05.038Z,58.60
2019-02-17T09:26:37.320Z,58.30
2019-02-17T09:29:09.419Z,58.30
2019-02-17T09:31:42.599Z,58.80
2019-02-17T09:34:15.820Z,58.70
2019-02-17T09:36:47.679Z,58.90
2019-02-17T09:39:20.900Z,59.00
2019-02-17T09:41:53.899Z,58.40
2019-02-17T09:44:27.121Z,59.10
2019-02-17T09:46:59.799Z,59.90
2019-02-17T09:49:32.140Z,60.20
2019-02-17T09:52:04.381Z,60.80
2019-02-17T09:54:37.139Z,61.80
2019-02-17T09:57:10.381Z,63.80
2019-02-17T09:59:43.679Z,64.90
2019-02-17T10:02:15.458Z,66.30
2019-02-17T10:04:50.219Z,66.60
2019-02-17T10:07:22.666Z,67.50
2019-02-17T10:09:55.222Z,67.80
2019-02-17T10:12:28.459Z,67.60
2019-02-17T10:15:00.679Z,67.50
2019-02-17T10:17:32.520Z,67.10
2019-02-17T10:20:05.320Z,66.70
2019-02-17T10:22:38.299Z,66.50
2019-02-17T10:25:11.219Z,66.30
2019-02-17T10:27:43.081Z,66.80
2019-02-17T10:30:16.860Z,67.40
2019-02-17T10:32:49.967Z,67.60
2019-02-17T10:35:22.839Z,67.20
2019-02-17T10:37:55.279Z,67.50
2019-02-17T10:40:28.460Z,67.20
2019-02-17T10:43:00.780Z,67.50
2019-02-17T10:45:35.019Z,66.80
2019-02-17T10:48:07.740Z,67.30
2019-02-17T10:50:41.100Z,67.10
2019-02-17T10:53:13.940Z,67.30
2019-02-17T10:55:46.642Z,67.30
2019-02-17T10:58:19.520Z,66.50
2019-02-17T11:00:52.342Z,66.60
2019-02-17T11:03:25.280Z,66.90
2019-02-17T11:05:58.600Z,66.20
2019-02-17T11:08:31.339Z,65.50
2019-02-17T11:11:04.299Z,64.80
2019-02-17T11:13:37.079Z,64.30
2019-02-17T11:16:10.539Z,62.20
2019-02-17T11:18:43.299Z,61.80
2019-02-17T11:21:15.499Z,62.60
2019-02-17T11:23:47.438Z,62.60
2019-02-17T11:26:19.999Z,62.80
2019-02-17T11:28:52.459Z,63.60
2019-02-17T11:31:25.160Z,61.60
2019-02-17T11:33:57.681Z,60.30
2019-02-17T11:36:29.584Z,59.90
2019-02-17T11:39:02.203Z,59.00
2019-02-17T11:41:34.880Z,58.40
2019-02-17T11:44:06.118Z,57.80
2019-02-17T11:46:38.699Z,57.50
2019-02-17T11:49:12.300Z,56.90
2019-02-17T11:51:45.040Z,57.60
2019-02-17T11:54:17.863Z,57.80
2019-02-17T11:56:49.980Z,58.00
2019-02-17T11:59:22.719Z,57.50
2019-02-17T12:01:56.480Z,57.10
2019-02-17T12:04:29.641Z,56.30
2019-02-17T12:07:03.267Z,55.90
2019-02-17T12:09:35.343Z,54.80
2019-02-17T12:12:08.299Z,54.10
2019-02-17T12:14:41.220Z,53.60
2019-02-17T12:17:14.119Z,52.50
2019-02-17T12:19:46.460Z,52.10
2019-02-17T12:22:46.399Z,51.40
2019-02-17T12:25:23.719Z,51.30
2019-02-17T12:28:02.039Z,49.50
2019-02-17T12:30:35.520Z,48.50
2019-02-17T12:33:17.752Z,47.90
2019-02-17T12:35:43.119Z,47.30
2019-02-17T12:38:16.299Z,46.10
2019-02-17T12:40:49.298Z,48.60
2019-02-17T12:43:21.481Z,48.10
2019-02-17T12:45:53.900Z,45.70
2019-02-17T12:48:27.111Z,46.10
2019-02-17T12:51:00.290Z,46.80
2019-02-17T12:53:32.802Z,47.00
2019-02-17T12:56:05.120Z,48.50
2019-02-17T12:58:37.821Z,49.80
2019-02-17T13:01:10.779Z,50.40
2019-02-17T13:03:44.101Z,50.70
2019-02-17T13:06:16.580Z,51.60
2019-02-17T13:08:49.481Z,52.70
2019-02-17T13:11:22.059Z,51.60
2019-02-17T13:13:55.182Z,51.20
2019-02-17T13:16:27.920Z,52.80
2019-02-17T13:19:00.639Z,52.50
2019-02-17T13:21:34.860Z,51.20
2019-02-17T13:24:07.621Z,50.10
2019-02-17T13:26:40.339Z,50.30
2019-02-17T13:29:13.558Z,50.40
2019-02-17T13:31:46.480Z,51.10
2019-02-17T13:34:19.079Z,51.10
2019-02-17T13:36:52.500Z,51.40
2019-02-17T13:39:25.000Z,51.70
2019-02-17T13:41:57.563Z,52.30
2019-02-17T13:44:30.321Z,52.50
2019-02-17T13:47:03.839Z,52.80
2019-02-17T13:49:36.439Z,52.00
2019-02-17T13:52:10.100Z,52.00
2019-02-17T13:54:43.260Z,52.10
2019-02-17T13:57:16.369Z,52.00
2019-02-17T13:59:48.464Z,50.10
2019-02-17T14:02:21.420Z,49.80
2019-02-17T14:04:54.280Z,50.20
2019-02-17T14:07:26.480Z,48.80
2019-02-17T14:09:58.779Z,49.30
2019-02-17T14:12:31.418Z,49.30
2019-02-17T14:15:04.060Z,49.10
2019-02-17T14:17:37.699Z,49.40
2019-02-17T14:20:09.983Z,49.80
2019-02-17T14:22:42.863Z,49.80
2019-02-17T14:25:16.000Z,49.80
2019-02-17T14:27:48.799Z,50.70
2019-02-17T14:30:22.159Z,50.00
2019-02-17T14:32:54.480Z,49.50
2019-02-17T14:35:27.039Z,49.10
2019-02-17T14:37:59.480Z,48.70
2019-02-17T14:40:32.140Z,47.80
2019-02-17T14:43:04.761Z,46.40
2019-02-17T14:45:38.001Z,46.40
2019-02-17T14:48:11.575Z,46.40
2019-02-17T14:50:45.163Z,46.00
2019-02-17T14:53:17.581Z,45.80
2019-02-17T14:55:51.223Z,45.80
2019-02-17T14:58:25.121Z,45.70
2019-02-17T15:00:58.452Z,45.80
2019-02-17T15:03:30.860Z,45.80
2019-02-17T15:06:03.435Z,46.50
2019-02-17T15:08:36.121Z,45.40
2019-02-17T15:11:10.059Z,45.70
2019-02-17T15:13:43.140Z,45.60
2019-02-17T15:16:15.459Z,45.20
2019-02-17T15:18:48.055Z,45.10
2019-02-17T15:21:21.401Z,45.30
2019-02-17T15:23:54.447Z,44.90
2019-02-17T15:26:27.168Z,44.70
2019-02-17T15:29:00.582Z,44.80
2019-02-17T15:31:33.587Z,44.70
2019-02-17T15:34:06.786Z,44.90
2019-02-17T15:36:39.627Z,44.80
2019-02-17T15:39:12.784Z,44.80
2019-02-17T15:41:45.966Z,44.70
2019-02-17T15:44:18.990Z,44.60
2019-02-17T15:46:51.463Z,44.80
2019-02-17T15:49:23.867Z,44.80
2019-02-17T15:51:56.664Z,44.10
2019-02-17T15:54:27.887Z,44.70
2019-02-17T15:57:01.151Z,44.70
2019-02-17T15:59:34.369Z,45.20
2019-02-17T16:02:06.764Z,45.50
2019-02-17T16:04:39.604Z,46.20
2019-02-17T16:07:13.225Z,48.90
2019-02-17T16:09:46.444Z,50.30
2019-02-17T16:12:19.804Z,50.40
2019-02-17T16:14:52.465Z,50.50
2019-02-17T16:17:25.304Z,50.80
2019-02-17T16:19:59.266Z,50.90
2019-02-17T16:22:31.985Z,51.10
2019-02-17T16:25:04.004Z,50.90
2019-02-17T16:27:37.097Z,51.00
2019-02-17T16:30:10.986Z,51.00
2019-02-17T16:32:44.146Z,51.10
2019-02-17T16:35:16.871Z,51.30
2019-02-17T16:37:48.967Z,51.60
2019-02-17T16:40:21.463Z,51.00
2019-02-17T16:42:54.022Z,50.90
2019-02-17T16:45:25.986Z,50.80
2019-02-17T16:47:58.383Z,51.60
2019-02-17T16:50:32.023Z,51.80
2019-02-17T16:53:05.164Z,51.40
2019-02-17T16:55:36.984Z,51.40
2019-02-17T16:58:09.304Z,51.50
2019-02-17T17:00:41.285Z,51.90
2019-02-17T17:03:14.264Z,52.00
2019-02-17T17:05:46.964Z,52.10
2019-02-17T17:08:20.164Z,52.20
2019-02-17T17:10:53.684Z,51.90
2019-02-17T17:13:26.343Z,52.40
2019-02-17T17:15:58.603Z,52.30
2019-02-17T17:18:30.883Z,52.40
2019-02-17T17:21:03.384Z,52.50
2019-02-17T17:23:35.123Z,52.50
2019-02-17T17:26:07.664Z,52.90
2019-02-17T17:28:40.570Z,53.40
2019-02-17T17:31:12.524Z,53.60
2019-02-17T17:33:44.944Z,53.90
2019-02-17T17:36:18.283Z,54.10
2019-02-17T17:38:51.308Z,54.20
2019-02-17T17:41:24.123Z,54.10
2019-02-17T17:43:56.465Z,53.70
2019-02-17T17:46:28.863Z,54.00
2019-02-17T17:49:02.063Z,53.40
2019-02-17T17:51:35.203Z,53.30
2019-02-17T17:54:07.764Z,53.50
2019-02-17T17:56:40.703Z,53.60
2019-02-17T17:59:12.945Z,53.90
2019-02-17T18:01:45.264Z,54.10
2019-02-17T18:04:18.284Z,53.90
2019-02-17T18:06:51.162Z,54.10
2019-02-17T18:09:23.783Z,54.40
2019-02-17T18:11:57.004Z,54.40
2019-02-17T18:14:29.665Z,54.70
2019-02-17T18:17:02.763Z,55.10
2019-02-17T18:19:35.046Z,55.10
2019-02-17T18:22:07.664Z,55.10
2019-02-17T18:24:41.264Z,55.10
2019-02-17T18:27:14.603Z,55.30
2019-02-17T18:29:47.424Z,55.20
2019-02-17T18:32:19.403Z,55.40
2019-02-17T18:34:52.062Z,55.30
2019-02-17T18:37:23.982Z,55.50
2019-02-17T18:39:56.743Z,55.50
2019-02-17T18:42:29.283Z,56.30
2019-02-17T18:45:01.431Z,55.80
2019-02-17T18:47:34.483Z,56.00
2019-02-17T18:50:08.063Z,56.10
2019-02-17T18:52:40.903Z,56.20
2019-02-17T18:55:13.583Z,56.40
2019-02-17T18:57:50.439Z,56.20
2019-02-17T19:00:21.443Z,56.20
2019-02-17T19:02:53.685Z,56.10
2019-02-17T19:05:31.831Z,56.20
2019-02-17T19:08:00.303Z,56.30
2019-02-17T19:10:34.895Z,56.40
2019-02-17T19:13:07.963Z,56.70
2019-02-17T19:15:40.734Z,57.00
2019-02-17T19:18:12.783Z,57.00
2019-02-17T19:20:45.743Z,57.20
2019-02-17T19:23:17.983Z,57.30
2019-02-17T19:25:50.283Z,56.80
2019-02-17T19:28:23.344Z,57.00
2019-02-17T19:30:56.202Z,57.20
2019-02-17T19:33:28.541Z,57.50
2019-02-17T19:36:01.008Z,57.40
2019-02-17T19:38:33.583Z,57.60
2019-02-17T19:41:05.963Z,57.60
2019-02-17T19:43:39.183Z,57.20
2019-02-17T19:46:11.823Z,57.20
2019-02-17T19:48:44.783Z,56.60
2019-02-17T19:51:17.103Z,56.80
2019-02-17T19:53:49.242Z,56.30
2019-02-17T19:56:21.664Z,56.00
2019-02-17T19:58:54.063Z,56.20
2019-02-17T20:01:27.263Z,55.60
2019-02-17T20:04:16.623Z,55.30
2019-02-17T20:06:49.101Z,54.80
2019-02-17T20:09:22.024Z,54.20
2019-02-17T20:11:55.364Z,54.30
2019-02-17T20:14:27.503Z,54.70
2019-02-17T20:16:59.682Z,56.00
2019-02-17T20:19:32.043Z,55.60
2019-02-17T20:22:04.784Z,55.50
2019-02-17T20:24:37.563Z,55.60
2019-02-17T20:27:10.522Z,55.30
2019-02-17T20:29:43.163Z,55.40
2019-02-17T20:32:15.502Z,55.50
2019-02-17T20:34:48.147Z,55.40
2019-02-17T20:37:21.542Z,55.80
2019-02-17T20:39:55.023Z,56.00
2019-02-17T20:42:27.063Z,55.90
2019-02-17T20:44:59.123Z,55.10
2019-02-17T20:47:31.943Z,55.30
2019-02-17T20:50:05.281Z,55.20
2019-02-17T20:52:38.163Z,55.40
2019-02-17T20:55:11.090Z,55.60
2019-02-17T20:57:43.721Z,55.60
2019-02-17T21:00:16.386Z,55.50
2019-02-17T21:02:48.623Z,55.30
2019-02-17T21:05:21.904Z,55.20
2019-02-17T21:07:54.124Z,55.40
2019-02-17T21:10:27.202Z,55.30
2019-02-17T21:13:00.464Z,55.40
2019-02-17T21:15:33.183Z,55.50
2019-02-17T21:18:05.203Z,55.60
2019-02-17T21:20:38.033Z,55.50
2019-02-17T21:23:10.782Z,55.50
2019-02-17T21:25:44.709Z,55.50
2019-02-17T21:28:16.723Z,55.60
2019-02-17T21:30:50.614Z,55.80
2019-02-17T21:33:23.382Z,55.90
2019-02-17T21:35:56.302Z,55.90
2019-02-17T21:38:29.662Z,55.80
2019-02-17T21:41:08.955Z,55.80
2019-02-17T21:43:37.263Z,55.70
2019-02-17T21:46:10.443Z,55.80
2019-02-17T21:48:43.302Z,55.90
2019-02-17T21:51:15.542Z,56.00
2019-02-17T21:53:48.165Z,56.00
2019-02-17T21:56:21.543Z,56.10
2019-02-17T21:58:55.143Z,56.80
2019-02-17T22:01:27.442Z,56.40
2019-02-17T22:03:59.563Z,56.40
2019-02-17T22:06:33.756Z,56.40
2019-02-17T22:09:07.243Z,56.30
2019-02-17T22:11:39.745Z,56.30
2019-02-17T22:14:11.823Z,56.60
2019-02-17T22:16:44.784Z,56.80
2019-02-17T22:19:17.762Z,56.80
2019-02-17T22:21:51.423Z,56.80
2019-02-17T22:24:24.487Z,56.60
2019-02-17T22:26:56.782Z,57.30
2019-02-17T22:29:29.263Z,57.00
2019-02-17T22:32:02.482Z,57.20
2019-02-17T22:34:36.324Z,57.00
2019-02-17T22:37:08.926Z,56.90
2019-02-17T22:39:41.223Z,56.60
2019-02-17T22:42:13.923Z,56.60
2019-02-17T22:44:46.143Z,56.00
2019-02-17T22:47:18.743Z,55.90
2019-02-17T22:49:51.042Z,55.70
2019-02-17T22:52:24.202Z,55.90
2019-02-17T22:54:57.183Z,56.10
2019-02-17T22:57:30.021Z,56.20
2019-02-17T23:00:02.523Z,56.40
2019-02-17T23:02:35.503Z,56.40
2019-02-17T23:05:09.063Z,56.30
2019-02-17T23:07:41.662Z,56.70
2019-02-17T23:10:14.322Z,56.30
2019-02-17T23:12:46.741Z,56.40
2019-02-17T23:15:19.962Z,56.20
2019-02-17T23:17:53.718Z,56.00
2019-02-17T23:20:26.023Z,56.20
2019-02-17T23:22:58.984Z,56.20
2019-02-17T23:25:31.442Z,56.20
2019-02-17T23:28:05.362Z,56.70
2019-02-17T23:30:37.923Z,56.50
2019-02-17T23:33:10.242Z,56.00
2019-02-17T23:35:42.501Z,55.80
2019-02-17T23:38:15.642Z,55.80
2019-02-17T23:40:48.442Z,56.20
2019-02-17T23:43:21.006Z,56.30
2019-02-17T23:45:53.766Z,56.70
2019-02-17T23:48:26.722Z,56.50
2019-02-17T23:50:59.542Z,56.50
2019-02-17T23:53:31.823Z,56.60
2019-02-17T23:56:03.402Z,56.90
2019-02-17T23:58:35.522Z,56.90
